sensor_id;sensor_type;location;lat;lon;timestamp;temperature;humidity
34568;DHT22;20806;50.746;7.116;2023-01-15T00:00:40;8.70;99.90
34568;DHT22;20806;50.746;7.116;2023-01-15T00:03:05;8.70;99.90
34568;DHT22;20806;50.746;7.116;2023-01-15T00:05:34;8.70;99.90
34568;DHT22;20806;50.746;7.116;2023-01-15T00:07:59;8.70;99.90
34568;DHT22;20806;50.746;7.116;2023-01-15T00:10:26;8.60;99.90
34568;DHT22;20806;50.746;7.116;2023-01-15T00:12:52;8.60;99.90
34568;DHT22;20806;50.746;7.116;2023-01-15T00:15:17;8.60;99.90
34568;DHT22;20806;50.746;7.116;2023-01-15T00:17:43;8.60;99.90
34568;DHT22;20806;50.746;7.116;2023-01-15T00:20:08;8.60;99.90
34568;DHT22;20806;50.746;7.116;2023-01-15T00:22:34;8.60;99.90
34568;DHT22;20806;50.746;7.116;2023-01-15T00:24:59;8.60;99.90
34568;DHT22;20806;50.746;7.116;2023-01-15T00:27:44;8.50;99.90
34568;DHT22;20806;50.746;7.116;2023-01-15T00:30:11;8.50;99.90
34568;DHT22;20806;50.746;7.116;2023-01-15T00:32:37;8.40;99.90
34568;DHT22;20806;50.746;7.116;2023-01-15T00:35:03;8.40;99.90
34568;DHT22;20806;50.746;7.116;2023-01-15T00:37:29;8.30;99.90
34568;DHT22;20806;50.746;7.116;2023-01-15T00:39:54;8.30;99.90
34568;DHT22;20806;50.746;7.116;2023-01-15T00:42:20;8.30;99.90
34568;DHT22;20806;50.746;7.116;2023-01-15T00:44:45;8.30;99.90
34568;DHT22;20806;50.746;7.116;2023-01-15T00:47:11;8.20;99.90
34568;DHT22;20806;50.746;7.116;2023-01-15T00:49:39;8.20;99.90
34568;DHT22;20806;50.746;7.116;2023-01-15T00:52:05;8.20;99.90
34568;DHT22;20806;50.746;7.116;2023-01-15T00:54:30;8.20;99.90
34568;DHT22;20806;50.746;7.116;2023-01-15T00:56:57;8.10;99.90
34568;DHT22;20806;50.746;7.116;2023-01-15T00:59:23;8.10;99.90
34568;DHT22;20806;50.746;7.116;2023-01-15T01:01:48;8.10;99.90
34568;DHT22;20806;50.746;7.116;2023-01-15T01:04:14;8.10;99.90
34568;DHT22;20806;50.746;7.116;2023-01-15T01:06:39;8.10;99.90
34568;DHT22;20806;50.746;7.116;2023-01-15T01:09:05;8.10;99.90
34568;DHT22;20806;50.746;7.116;2023-01-15T01:11:30;8.20;99.90
34568;DHT22;20806;50.746;7.116;2023-01-15T01:13:59;8.20;99.90
34568;DHT22;20806;50.746;7.116;2023-01-15T01:19:00;8.10;99.90
34568;DHT22;20806;50.746;7.116;2023-01-15T01:21:28;8.20;99.90
34568;DHT22;20806;50.746;7.116;2023-01-15T01:23:53;8.20;99.90
34568;DHT22;20806;50.746;7.116;2023-01-15T01:26:19;8.20;99.90
34568;DHT22;20806;50.746;7.116;2023-01-15T01:28:49;8.20;99.90
34568;DHT22;20806;50.746;7.116;2023-01-15T01:31:15;8.30;99.90
34568;DHT22;20806;50.746;7.116;2023-01-15T01:33:41;8.20;99.90
34568;DHT22;20806;50.746;7.116;2023-01-15T01:36:07;8.30;99.90
34568;DHT22;20806;50.746;7.116;2023-01-15T01:38:32;8.30;99.90
34568;DHT22;20806;50.746;7.116;2023-01-15T01:40:58;8.40;99.90
34568;DHT22;20806;50.746;7.116;2023-01-15T01:43:24;8.40;99.90
34568;DHT22;20806;50.746;7.116;2023-01-15T01:45:50;8.40;99.90
34568;DHT22;20806;50.746;7.116;2023-01-15T01:48:16;8.50;99.90
34568;DHT22;20806;50.746;7.116;2023-01-15T01:50:42;8.60;99.90
34568;DHT22;20806;50.746;7.116;2023-01-15T01:53:19;8.60;99.90
34568;DHT22;20806;50.746;7.116;2023-01-15T01:55:45;8.70;99.90
34568;DHT22;20806;50.746;7.116;2023-01-15T01:58:11;8.60;99.90
34568;DHT22;20806;50.746;7.116;2023-01-15T02:00:38;8.70;99.90
34568;DHT22;20806;50.746;7.116;2023-01-15T02:03:05;8.70;99.90
34568;DHT22;20806;50.746;7.116;2023-01-15T02:05:32;8.70;99.90
34568;DHT22;20806;50.746;7.116;2023-01-15T02:07:59;8.70;99.90
34568;DHT22;20806;50.746;7.116;2023-01-15T02:10:25;8.70;99.90
34568;DHT22;20806;50.746;7.116;2023-01-15T02:12:55;8.70;99.90
34568;DHT22;20806;50.746;7.116;2023-01-15T02:15:31;8.70;99.90
34568;DHT22;20806;50.746;7.116;2023-01-15T02:28:43;8.60;99.90
34568;DHT22;20806;50.746;7.116;2023-01-15T02:33:43;8.70;99.90
34568;DHT22;20806;50.746;7.116;2023-01-15T02:36:11;8.70;99.90
34568;DHT22;20806;50.746;7.116;2023-01-15T02:38:40;8.70;99.90
34568;DHT22;20806;50.746;7.116;2023-01-15T02:41:08;8.70;99.90
34568;DHT22;20806;50.746;7.116;2023-01-15T02:43:40;8.60;99.90
34568;DHT22;20806;50.746;7.116;2023-01-15T02:46:07;8.70;99.90
34568;DHT22;20806;50.746;7.116;2023-01-15T02:48:33;8.60;99.90
34568;DHT22;20806;50.746;7.116;2023-01-15T02:51:02;8.60;99.90
34568;DHT22;20806;50.746;7.116;2023-01-15T02:53:30;8.70;99.90
34568;DHT22;20806;50.746;7.116;2023-01-15T02:55:58;8.70;99.90
34568;DHT22;20806;50.746;7.116;2023-01-15T02:58:25;8.70;99.90
34568;DHT22;20806;50.746;7.116;2023-01-15T03:00:52;8.70;99.90
34568;DHT22;20806;50.746;7.116;2023-01-15T03:03:20;8.70;99.90
34568;DHT22;20806;50.746;7.116;2023-01-15T03:05:53;8.70;99.90
34568;DHT22;20806;50.746;7.116;2023-01-15T03:08:20;8.70;99.90
34568;DHT22;20806;50.746;7.116;2023-01-15T03:13:16;8.80;99.90
34568;DHT22;20806;50.746;7.116;2023-01-15T03:15:52;8.80;99.90
34568;DHT22;20806;50.746;7.116;2023-01-15T03:21:25;8.80;99.90
34568;DHT22;20806;50.746;7.116;2023-01-15T03:23:52;8.80;99.90
34568;DHT22;20806;50.746;7.116;2023-01-15T03:26:19;8.90;99.90
34568;DHT22;20806;50.746;7.116;2023-01-15T03:28:44;8.90;99.90
34568;DHT22;20806;50.746;7.116;2023-01-15T03:31:11;8.90;99.90
34568;DHT22;20806;50.746;7.116;2023-01-15T03:33:36;9.00;99.90
34568;DHT22;20806;50.746;7.116;2023-01-15T03:36:02;8.90;99.90
34568;DHT22;20806;50.746;7.116;2023-01-15T03:38:28;8.90;99.90
34568;DHT22;20806;50.746;7.116;2023-01-15T03:41:30;9.00;99.90
34568;DHT22;20806;50.746;7.116;2023-01-15T03:49:14;9.00;99.90
34568;DHT22;20806;50.746;7.116;2023-01-15T03:51:48;9.00;99.90
34568;DHT22;20806;50.746;7.116;2023-01-15T03:54:32;9.00;99.90
34568;DHT22;20806;50.746;7.116;2023-01-15T03:57:04;9.00;99.90
34568;DHT22;20806;50.746;7.116;2023-01-15T03:59:38;9.00;99.90
34568;DHT22;20806;50.746;7.116;2023-01-15T04:02:05;9.00;99.90
34568;DHT22;20806;50.746;7.116;2023-01-15T04:04:31;9.00;99.90
34568;DHT22;20806;50.746;7.116;2023-01-15T04:06:57;9.00;99.90
34568;DHT22;20806;50.746;7.116;2023-01-15T04:09:24;9.00;99.90
34568;DHT22;20806;50.746;7.116;2023-01-15T04:11:49;9.00;99.90
34568;DHT22;20806;50.746;7.116;2023-01-15T04:14:15;9.00;99.90
34568;DHT22;20806;50.746;7.116;2023-01-15T04:16:40;8.90;99.90
34568;DHT22;20806;50.746;7.116;2023-01-15T04:19:06;8.90;99.90
34568;DHT22;20806;50.746;7.116;2023-01-15T04:21:31;8.90;99.90
34568;DHT22;20806;50.746;7.116;2023-01-15T04:23:57;8.80;99.90
34568;DHT22;20806;50.746;7.116;2023-01-15T04:26:22;8.80;99.90
34568;DHT22;20806;50.746;7.116;2023-01-15T04:28:48;8.80;99.90
34568;DHT22;20806;50.746;7.116;2023-01-15T04:31:13;8.70;99.90
34568;DHT22;20806;50.746;7.116;2023-01-15T04:33:39;8.70;99.90
34568;DHT22;20806;50.746;7.116;2023-01-15T04:36:04;8.70;99.90
34568;DHT22;20806;50.746;7.116;2023-01-15T04:38:30;8.70;99.90
34568;DHT22;20806;50.746;7.116;2023-01-15T04:40:59;8.70;99.90
34568;DHT22;20806;50.746;7.116;2023-01-15T04:43:43;8.70;99.90
34568;DHT22;20806;50.746;7.116;2023-01-15T04:46:27;8.70;99.90
34568;DHT22;20806;50.746;7.116;2023-01-15T04:48:53;8.60;99.90
34568;DHT22;20806;50.746;7.116;2023-01-15T04:51:18;8.60;99.90
34568;DHT22;20806;50.746;7.116;2023-01-15T04:53:44;8.60;99.90
34568;DHT22;20806;50.746;7.116;2023-01-15T04:56:09;8.70;99.90
34568;DHT22;20806;50.746;7.116;2023-01-15T04:58:34;8.70;99.90
34568;DHT22;20806;50.746;7.116;2023-01-15T05:01:00;8.70;99.90
34568;DHT22;20806;50.746;7.116;2023-01-15T05:03:26;8.70;99.90
34568;DHT22;20806;50.746;7.116;2023-01-15T05:05:51;8.70;99.90
34568;DHT22;20806;50.746;7.116;2023-01-15T05:08:17;8.70;99.90
34568;DHT22;20806;50.746;7.116;2023-01-15T05:10:43;8.80;99.90
34568;DHT22;20806;50.746;7.116;2023-01-15T05:13:08;8.80;99.90
34568;DHT22;20806;50.746;7.116;2023-01-15T05:15:34;8.80;99.90
34568;DHT22;20806;50.746;7.116;2023-01-15T05:17:59;8.80;99.90
34568;DHT22;20806;50.746;7.116;2023-01-15T05:20:25;8.80;99.90
34568;DHT22;20806;50.746;7.116;2023-01-15T05:22:50;8.80;99.90
34568;DHT22;20806;50.746;7.116;2023-01-15T05:25:16;8.80;99.90
34568;DHT22;20806;50.746;7.116;2023-01-15T05:27:41;8.80;99.90
34568;DHT22;20806;50.746;7.116;2023-01-15T05:30:07;8.80;99.90
34568;DHT22;20806;50.746;7.116;2023-01-15T05:32:32;8.80;99.90
34568;DHT22;20806;50.746;7.116;2023-01-15T05:34:58;8.80;99.90
34568;DHT22;20806;50.746;7.116;2023-01-15T05:37:23;8.70;99.90
34568;DHT22;20806;50.746;7.116;2023-01-15T05:39:49;8.80;99.90
34568;DHT22;20806;50.746;7.116;2023-01-15T05:42:14;8.70;99.90
34568;DHT22;20806;50.746;7.116;2023-01-15T05:44:40;8.70;99.90
34568;DHT22;20806;50.746;7.116;2023-01-15T05:47:05;8.70;99.90
34568;DHT22;20806;50.746;7.116;2023-01-15T05:49:32;8.70;99.90
34568;DHT22;20806;50.746;7.116;2023-01-15T05:51:58;8.70;99.90
34568;DHT22;20806;50.746;7.116;2023-01-15T05:54:28;8.60;99.90
34568;DHT22;20806;50.746;7.116;2023-01-15T05:56:54;8.60;99.90
34568;DHT22;20806;50.746;7.116;2023-01-15T05:59:21;8.60;99.90
34568;DHT22;20806;50.746;7.116;2023-01-15T06:01:47;8.60;99.90
34568;DHT22;20806;50.746;7.116;2023-01-15T06:04:12;8.60;99.90
34568;DHT22;20806;50.746;7.116;2023-01-15T06:06:45;8.60;99.90
34568;DHT22;20806;50.746;7.116;2023-01-15T06:09:11;8.60;99.90
34568;DHT22;20806;50.746;7.116;2023-01-15T06:11:36;8.50;99.90
34568;DHT22;20806;50.746;7.116;2023-01-15T06:14:02;8.50;99.90
34568;DHT22;20806;50.746;7.116;2023-01-15T06:16:27;8.40;99.90
34568;DHT22;20806;50.746;7.116;2023-01-15T06:18:53;8.40;99.90
34568;DHT22;20806;50.746;7.116;2023-01-15T06:21:18;8.40;99.90
34568;DHT22;20806;50.746;7.116;2023-01-15T06:23:44;8.40;99.90
34568;DHT22;20806;50.746;7.116;2023-01-15T06:26:11;8.40;99.90
34568;DHT22;20806;50.746;7.116;2023-01-15T06:28:36;8.30;99.90
34568;DHT22;20806;50.746;7.116;2023-01-15T06:31:06;8.30;99.90
34568;DHT22;20806;50.746;7.116;2023-01-15T06:33:31;8.30;99.90
34568;DHT22;20806;50.746;7.116;2023-01-15T06:35:57;8.20;99.90
34568;DHT22;20806;50.746;7.116;2023-01-15T06:38:22;8.20;99.90
34568;DHT22;20806;50.746;7.116;2023-01-15T06:40:48;8.20;99.90
34568;DHT22;20806;50.746;7.116;2023-01-15T06:43:13;8.10;99.90
34568;DHT22;20806;50.746;7.116;2023-01-15T06:45:57;8.10;99.90
34568;DHT22;20806;50.746;7.116;2023-01-15T06:48:42;8.00;99.90
34568;DHT22;20806;50.746;7.116;2023-01-15T06:51:07;8.00;99.90
34568;DHT22;20806;50.746;7.116;2023-01-15T06:53:33;8.00;99.90
34568;DHT22;20806;50.746;7.116;2023-01-15T06:55:59;7.90;99.90
34568;DHT22;20806;50.746;7.116;2023-01-15T06:58:25;7.90;99.90
34568;DHT22;20806;50.746;7.116;2023-01-15T07:00:50;7.80;99.90
34568;DHT22;20806;50.746;7.116;2023-01-15T07:03:20;7.80;99.90
34568;DHT22;20806;50.746;7.116;2023-01-15T07:05:45;7.80;99.90
34568;DHT22;20806;50.746;7.116;2023-01-15T07:08:11;7.80;99.90
34568;DHT22;20806;50.746;7.116;2023-01-15T07:10:36;7.80;99.90
34568;DHT22;20806;50.746;7.116;2023-01-15T07:13:02;7.70;99.90
34568;DHT22;20806;50.746;7.116;2023-01-15T07:15:27;7.70;99.90
34568;DHT22;20806;50.746;7.116;2023-01-15T07:17:53;7.80;99.90
34568;DHT22;20806;50.746;7.116;2023-01-15T07:20:19;7.70;99.90
34568;DHT22;20806;50.746;7.116;2023-01-15T07:22:47;7.70;99.90
34568;DHT22;20806;50.746;7.116;2023-01-15T07:25:13;7.70;99.90
34568;DHT22;20806;50.746;7.116;2023-01-15T07:27:38;7.80;99.90
34568;DHT22;20806;50.746;7.116;2023-01-15T07:30:04;7.80;99.90
34568;DHT22;20806;50.746;7.116;2023-01-15T07:32:29;7.90;99.90
34568;DHT22;20806;50.746;7.116;2023-01-15T07:34:55;7.90;99.90
34568;DHT22;20806;50.746;7.116;2023-01-15T07:37:20;7.90;99.90
34568;DHT22;20806;50.746;7.116;2023-01-15T07:39:46;7.90;99.90
34568;DHT22;20806;50.746;7.116;2023-01-15T07:42:11;7.90;99.90
34568;DHT22;20806;50.746;7.116;2023-01-15T07:44:55;7.90;99.90
34568;DHT22;20806;50.746;7.116;2023-01-15T07:47:40;8.00;99.90
34568;DHT22;20806;50.746;7.116;2023-01-15T07:50:29;8.00;99.90
34568;DHT22;20806;50.746;7.116;2023-01-15T07:52:54;8.00;99.90
34568;DHT22;20806;50.746;7.116;2023-01-15T07:55:20;8.00;99.90
34568;DHT22;20806;50.746;7.116;2023-01-15T07:57:46;8.10;99.90
34568;DHT22;20806;50.746;7.116;2023-01-15T08:00:12;8.30;99.90
34568;DHT22;20806;50.746;7.116;2023-01-15T08:02:38;8.20;99.90
34568;DHT22;20806;50.746;7.116;2023-01-15T08:05:04;8.20;99.90
34568;DHT22;20806;50.746;7.116;2023-01-15T08:07:30;8.20;99.90
34568;DHT22;20806;50.746;7.116;2023-01-15T08:09:55;8.20;99.90
34568;DHT22;20806;50.746;7.116;2023-01-15T08:12:21;8.20;99.90
34568;DHT22;20806;50.746;7.116;2023-01-15T08:15:05;8.20;99.90
34568;DHT22;20806;50.746;7.116;2023-01-15T08:17:41;8.10;99.90
34568;DHT22;20806;50.746;7.116;2023-01-15T08:20:14;8.10;99.90
34568;DHT22;20806;50.746;7.116;2023-01-15T08:22:40;8.10;99.90
34568;DHT22;20806;50.746;7.116;2023-01-15T08:25:06;8.20;99.90
34568;DHT22;20806;50.746;7.116;2023-01-15T08:27:32;8.20;99.90
34568;DHT22;20806;50.746;7.116;2023-01-15T08:29:58;8.20;99.90
34568;DHT22;20806;50.746;7.116;2023-01-15T08:32:23;8.20;99.90
34568;DHT22;20806;50.746;7.116;2023-01-15T08:34:49;8.20;99.90
34568;DHT22;20806;50.746;7.116;2023-01-15T08:37:14;8.30;99.90
34568;DHT22;20806;50.746;7.116;2023-01-15T08:39:40;8.30;99.90
34568;DHT22;20806;50.746;7.116;2023-01-15T08:42:05;8.40;99.90
34568;DHT22;20806;50.746;7.116;2023-01-15T08:44:31;8.50;99.90
34568;DHT22;20806;50.746;7.116;2023-01-15T08:46:57;8.50;99.90
34568;DHT22;20806;50.746;7.116;2023-01-15T08:49:23;8.50;99.90
34568;DHT22;20806;50.746;7.116;2023-01-15T08:51:48;8.50;99.90
34568;DHT22;20806;50.746;7.116;2023-01-15T08:54:17;8.50;99.90
34568;DHT22;20806;50.746;7.116;2023-01-15T08:56:42;8.50;99.90
34568;DHT22;20806;50.746;7.116;2023-01-15T08:59:14;8.60;99.90
34568;DHT22;20806;50.746;7.116;2023-01-15T09:01:40;8.60;99.90
34568;DHT22;20806;50.746;7.116;2023-01-15T09:04:05;8.60;99.90
34568;DHT22;20806;50.746;7.116;2023-01-15T09:06:31;8.60;99.90
34568;DHT22;20806;50.746;7.116;2023-01-15T09:09:00;8.70;99.90
34568;DHT22;20806;50.746;7.116;2023-01-15T09:11:26;8.70;99.90
34568;DHT22;20806;50.746;7.116;2023-01-15T09:13:51;8.80;99.90
34568;DHT22;20806;50.746;7.116;2023-01-15T09:16:18;8.80;99.90
34568;DHT22;20806;50.746;7.116;2023-01-15T09:18:43;8.70;99.90
34568;DHT22;20806;50.746;7.116;2023-01-15T09:21:09;8.80;99.90
34568;DHT22;20806;50.746;7.116;2023-01-15T09:23:35;8.80;99.90
34568;DHT22;20806;50.746;7.116;2023-01-15T09:26:01;8.90;99.90
34568;DHT22;20806;50.746;7.116;2023-01-15T09:28:27;8.80;99.90
34568;DHT22;20806;50.746;7.116;2023-01-15T09:30:53;8.80;99.90
34568;DHT22;20806;50.746;7.116;2023-01-15T09:33:19;8.80;99.90
34568;DHT22;20806;50.746;7.116;2023-01-15T09:35:44;8.90;99.90
34568;DHT22;20806;50.746;7.116;2023-01-15T09:38:17;8.90;99.90
34568;DHT22;20806;50.746;7.116;2023-01-15T09:43:19;8.90;99.90
34568;DHT22;20806;50.746;7.116;2023-01-15T09:45:49;8.90;99.90
34568;DHT22;20806;50.746;7.116;2023-01-15T09:53:35;8.70;99.90
34568;DHT22;20806;50.746;7.116;2023-01-15T09:56:18;8.70;99.90
34568;DHT22;20806;50.746;7.116;2023-01-15T09:58:44;8.70;99.90
34568;DHT22;20806;50.746;7.116;2023-01-15T10:01:17;8.70;99.90
34568;DHT22;20806;50.746;7.116;2023-01-15T10:03:48;8.70;99.90
34568;DHT22;20806;50.746;7.116;2023-01-15T10:06:26;8.90;99.90
34568;DHT22;20806;50.746;7.116;2023-01-15T10:09:01;8.90;99.90
34568;DHT22;20806;50.746;7.116;2023-01-15T10:11:34;8.90;99.90
34568;DHT22;20806;50.746;7.116;2023-01-15T10:14:30;8.90;99.90
34568;DHT22;20806;50.746;7.116;2023-01-15T10:16:56;8.80;99.90
34568;DHT22;20806;50.746;7.116;2023-01-15T10:19:22;8.80;99.90
34568;DHT22;20806;50.746;7.116;2023-01-15T10:21:55;8.70;99.90
34568;DHT22;20806;50.746;7.116;2023-01-15T10:24:44;8.80;99.90
34568;DHT22;20806;50.746;7.116;2023-01-15T10:27:15;8.70;99.90
34568;DHT22;20806;50.746;7.116;2023-01-15T10:29:47;8.80;99.90
34568;DHT22;20806;50.746;7.116;2023-01-15T10:37:41;8.70;99.90
34568;DHT22;20806;50.746;7.116;2023-01-15T10:40:12;8.70;99.90
34568;DHT22;20806;50.746;7.116;2023-01-15T10:47:42;8.90;99.90
34568;DHT22;20806;50.746;7.116;2023-01-15T10:50:14;8.90;99.90
34568;DHT22;20806;50.746;7.116;2023-01-15T10:52:40;9.00;99.90
34568;DHT22;20806;50.746;7.116;2023-01-15T10:57:48;9.10;99.90
34568;DHT22;20806;50.746;7.116;2023-01-15T11:00:15;9.20;99.90
34568;DHT22;20806;50.746;7.116;2023-01-15T11:02:42;9.10;99.90
34568;DHT22;20806;50.746;7.116;2023-01-15T11:05:27;9.20;99.90
34568;DHT22;20806;50.746;7.116;2023-01-15T11:07:52;9.20;99.90
34568;DHT22;20806;50.746;7.116;2023-01-15T11:10:19;9.30;99.90
34568;DHT22;20806;50.746;7.116;2023-01-15T11:12:56;9.30;99.90
34568;DHT22;20806;50.746;7.116;2023-01-15T11:15:43;9.40;99.90
34568;DHT22;20806;50.746;7.116;2023-01-15T11:18:30;9.40;99.90
34568;DHT22;20806;50.746;7.116;2023-01-15T11:21:20;9.40;99.90
34568;DHT22;20806;50.746;7.116;2023-01-15T11:23:46;9.50;99.90
34568;DHT22;20806;50.746;7.116;2023-01-15T11:26:20;9.50;99.90
34568;DHT22;20806;50.746;7.116;2023-01-15T11:28:46;9.50;99.90
34568;DHT22;20806;50.746;7.116;2023-01-15T11:31:13;9.60;99.90
34568;DHT22;20806;50.746;7.116;2023-01-15T11:33:39;9.60;99.90
34568;DHT22;20806;50.746;7.116;2023-01-15T11:36:21;9.60;99.90
34568;DHT22;20806;50.746;7.116;2023-01-15T11:38:48;9.50;99.90
34568;DHT22;20806;50.746;7.116;2023-01-15T11:41:26;9.50;99.90
34568;DHT22;20806;50.746;7.116;2023-01-15T11:44:11;9.60;99.90
34568;DHT22;20806;50.746;7.116;2023-01-15T11:46:55;9.70;99.90
34568;DHT22;20806;50.746;7.116;2023-01-15T11:49:39;9.90;99.90
34568;DHT22;20806;50.746;7.116;2023-01-15T11:52:31;10.10;99.90
34568;DHT22;20806;50.746;7.116;2023-01-15T11:54:57;10.20;99.90
34568;DHT22;20806;50.746;7.116;2023-01-15T11:57:29;10.20;99.90
34568;DHT22;20806;50.746;7.116;2023-01-15T11:59:56;10.20;99.90
34568;DHT22;20806;50.746;7.116;2023-01-15T12:02:27;10.10;99.90
34568;DHT22;20806;50.746;7.116;2023-01-15T12:04:56;10.20;99.90
34568;DHT22;20806;50.746;7.116;2023-01-15T12:07:23;10.30;99.90
34568;DHT22;20806;50.746;7.116;2023-01-15T12:12:41;10.60;99.90
34568;DHT22;20806;50.746;7.116;2023-01-15T12:15:51;10.70;99.90
34568;DHT22;20806;50.746;7.116;2023-01-15T12:20:33;10.80;99.90
34568;DHT22;20806;50.746;7.116;2023-01-15T12:25:52;10.90;99.90
34568;DHT22;20806;50.746;7.116;2023-01-15T12:28:24;11.10;99.90
34568;DHT22;20806;50.746;7.116;2023-01-15T12:33:24;11.10;99.90
34568;DHT22;20806;50.746;7.116;2023-01-15T12:35:53;11.20;99.90
34568;DHT22;20806;50.746;7.116;2023-01-15T12:38:23;11.30;99.90
34568;DHT22;20806;50.746;7.116;2023-01-15T12:40:53;11.30;99.90
34568;DHT22;20806;50.746;7.116;2023-01-15T12:43:25;11.20;99.90
34568;DHT22;20806;50.746;7.116;2023-01-15T12:46:11;11.20;99.90
34568;DHT22;20806;50.746;7.116;2023-01-15T12:48:41;11.20;99.90
34568;DHT22;20806;50.746;7.116;2023-01-15T12:51:11;11.40;99.90
34568;DHT22;20806;50.746;7.116;2023-01-15T12:53:42;11.70;99.90
34568;DHT22;20806;50.746;7.116;2023-01-15T12:58:45;12.10;99.90
34568;DHT22;20806;50.746;7.116;2023-01-15T13:06:20;12.30;99.90
34568;DHT22;20806;50.746;7.116;2023-01-15T13:11:20;12.90;99.90
34568;DHT22;20806;50.746;7.116;2023-01-15T13:13:45;13.10;99.90
34568;DHT22;20806;50.746;7.116;2023-01-15T13:19:05;12.90;99.30
34568;DHT22;20806;50.746;7.116;2023-01-15T13:21:34;12.60;99.60
34568;DHT22;20806;50.746;7.116;2023-01-15T13:24:05;12.30;99.70
34568;DHT22;20806;50.746;7.116;2023-01-15T13:31:59;11.40;99.90
34568;DHT22;20806;50.746;7.116;2023-01-15T13:36:55;11.10;99.90
34568;DHT22;20806;50.746;7.116;2023-01-15T13:39:23;11.10;99.90
34568;DHT22;20806;50.746;7.116;2023-01-15T13:41:50;11.00;99.90
34568;DHT22;20806;50.746;7.116;2023-01-15T13:44:36;11.10;99.90
34568;DHT22;20806;50.746;7.116;2023-01-15T13:47:03;11.20;99.90
34568;DHT22;20806;50.746;7.116;2023-01-15T13:49:31;11.10;99.90
34568;DHT22;20806;50.746;7.116;2023-01-15T13:51:58;11.00;99.90
34568;DHT22;20806;50.746;7.116;2023-01-15T13:54:28;11.00;99.90
34568;DHT22;20806;50.746;7.116;2023-01-15T13:57:05;10.90;99.90
34568;DHT22;20806;50.746;7.116;2023-01-15T13:59:40;10.80;99.90
34568;DHT22;20806;50.746;7.116;2023-01-15T14:04:50;10.70;99.90
34568;DHT22;20806;50.746;7.116;2023-01-15T14:07:19;10.70;99.90
34568;DHT22;20806;50.746;7.116;2023-01-15T14:09:48;11.00;99.90
34568;DHT22;20806;50.746;7.116;2023-01-15T14:12:27;11.30;99.90
34568;DHT22;20806;50.746;7.116;2023-01-15T14:27:57;10.90;99.90
34568;DHT22;20806;50.746;7.116;2023-01-15T14:33:23;10.60;99.90
34568;DHT22;20806;50.746;7.116;2023-01-15T14:35:52;10.50;99.90
34568;DHT22;20806;50.746;7.116;2023-01-15T14:38:19;10.40;99.90
34568;DHT22;20806;50.746;7.116;2023-01-15T14:40:54;10.30;99.90
34568;DHT22;20806;50.746;7.116;2023-01-15T14:43:21;10.20;99.90
34568;DHT22;20806;50.746;7.116;2023-01-15T14:45:48;10.20;99.90
34568;DHT22;20806;50.746;7.116;2023-01-15T14:50:42;10.10;99.90
34568;DHT22;20806;50.746;7.116;2023-01-15T15:01:00;10.00;99.90
34568;DHT22;20806;50.746;7.116;2023-01-15T15:03:32;10.10;99.90
34568;DHT22;20806;50.746;7.116;2023-01-15T15:05:58;10.10;99.90
34568;DHT22;20806;50.746;7.116;2023-01-15T15:08:24;10.00;99.90
34568;DHT22;20806;50.746;7.116;2023-01-15T15:10:53;10.10;99.90
34568;DHT22;20806;50.746;7.116;2023-01-15T15:13:27;10.10;99.90
34568;DHT22;20806;50.746;7.116;2023-01-15T15:18:55;10.00;99.90
34568;DHT22;20806;50.746;7.116;2023-01-15T15:21:28;10.00;99.90
34568;DHT22;20806;50.746;7.116;2023-01-15T15:24:39;10.00;99.90
34568;DHT22;20806;50.746;7.116;2023-01-15T15:26:43;10.00;99.90
34568;DHT22;20806;50.746;7.116;2023-01-15T15:29:12;10.00;99.90
34568;DHT22;20806;50.746;7.116;2023-01-15T15:31:39;10.00;99.90
34568;DHT22;20806;50.746;7.116;2023-01-15T15:34:06;10.00;99.90
34568;DHT22;20806;50.746;7.116;2023-01-15T15:36:35;10.00;99.90
34568;DHT22;20806;50.746;7.116;2023-01-15T15:39:03;9.90;99.90
34568;DHT22;20806;50.746;7.116;2023-01-15T15:41:36;9.90;99.90
34568;DHT22;20806;50.746;7.116;2023-01-15T15:44:28;9.90;99.90
34568;DHT22;20806;50.746;7.116;2023-01-15T15:47:23;9.90;99.90
34568;DHT22;20806;50.746;7.116;2023-01-15T15:50:21;9.90;99.90
34568;DHT22;20806;50.746;7.116;2023-01-15T15:52:47;9.90;99.90
34568;DHT22;20806;50.746;7.116;2023-01-15T15:55:13;9.90;99.90
34568;DHT22;20806;50.746;7.116;2023-01-15T15:57:39;9.90;99.90
34568;DHT22;20806;50.746;7.116;2023-01-15T16:00:05;9.80;99.90
34568;DHT22;20806;50.746;7.116;2023-01-15T16:02:40;9.80;99.90
34568;DHT22;20806;50.746;7.116;2023-01-15T16:05:26;9.80;99.90
34568;DHT22;20806;50.746;7.116;2023-01-15T16:07:53;9.70;99.90
34568;DHT22;20806;50.746;7.116;2023-01-15T16:10:24;9.70;99.90
34568;DHT22;20806;50.746;7.116;2023-01-15T16:12:51;9.70;99.90
34568;DHT22;20806;50.746;7.116;2023-01-15T16:15:18;9.60;99.90
34568;DHT22;20806;50.746;7.116;2023-01-15T16:17:44;9.60;99.90
34568;DHT22;20806;50.746;7.116;2023-01-15T16:20:16;9.50;99.90
34568;DHT22;20806;50.746;7.116;2023-01-15T16:22:59;9.50;99.90
34568;DHT22;20806;50.746;7.116;2023-01-15T16:25:26;9.60;99.90
34568;DHT22;20806;50.746;7.116;2023-01-15T16:27:55;9.60;99.90
34568;DHT22;20806;50.746;7.116;2023-01-15T16:30:20;9.60;99.90
34568;DHT22;20806;50.746;7.116;2023-01-15T16:32:46;9.60;99.90
34568;DHT22;20806;50.746;7.116;2023-01-15T16:35:22;9.60;99.90
34568;DHT22;20806;50.746;7.116;2023-01-15T16:37:49;9.60;99.90
34568;DHT22;20806;50.746;7.116;2023-01-15T16:40:37;9.60;99.90
34568;DHT22;20806;50.746;7.116;2023-01-15T16:43:06;9.60;99.90
34568;DHT22;20806;50.746;7.116;2023-01-15T16:45:32;9.50;99.90
34568;DHT22;20806;50.746;7.116;2023-01-15T16:47:59;9.50;99.90
34568;DHT22;20806;50.746;7.116;2023-01-15T16:50:26;9.60;99.90
34568;DHT22;20806;50.746;7.116;2023-01-15T16:52:56;9.50;99.90
34568;DHT22;20806;50.746;7.116;2023-01-15T17:00:37;9.40;99.90
34568;DHT22;20806;50.746;7.116;2023-01-15T17:03:10;9.40;99.90
34568;DHT22;20806;50.746;7.116;2023-01-15T17:05:36;9.30;99.90
34568;DHT22;20806;50.746;7.116;2023-01-15T17:08:01;9.30;99.90
34568;DHT22;20806;50.746;7.116;2023-01-15T17:10:27;9.30;99.90
34568;DHT22;20806;50.746;7.116;2023-01-15T17:12:58;9.30;99.90
34568;DHT22;20806;50.746;7.116;2023-01-15T17:17:49;9.30;99.90
34568;DHT22;20806;50.746;7.116;2023-01-15T17:20:15;9.30;99.90
34568;DHT22;20806;50.746;7.116;2023-01-15T17:22:42;9.30;99.90
34568;DHT22;20806;50.746;7.116;2023-01-15T17:25:28;9.30;99.90
34568;DHT22;20806;50.746;7.116;2023-01-15T17:27:55;9.30;99.90
34568;DHT22;20806;50.746;7.116;2023-01-15T17:30:21;9.30;99.90
34568;DHT22;20806;50.746;7.116;2023-01-15T17:33:04;9.30;99.90
34568;DHT22;20806;50.746;7.116;2023-01-15T17:35:31;9.40;99.90
34568;DHT22;20806;50.746;7.116;2023-01-15T17:37:57;9.40;99.90
34568;DHT22;20806;50.746;7.116;2023-01-15T17:40:22;9.40;99.90
34568;DHT22;20806;50.746;7.116;2023-01-15T17:42:48;9.40;99.90
34568;DHT22;20806;50.746;7.116;2023-01-15T17:45:21;9.40;99.90
34568;DHT22;20806;50.746;7.116;2023-01-15T17:47:47;9.40;99.90
34568;DHT22;20806;50.746;7.116;2023-01-15T17:50:13;9.40;99.90
34568;DHT22;20806;50.746;7.116;2023-01-15T17:52:39;9.40;99.90